createdAt,value
2023-05-08T00:00:59.401Z,15.45
2023-05-08T00:03:28.714Z,15.37
2023-05-08T00:05:57.504Z,15.43
2023-05-08T00:08:26.511Z,15.71
2023-05-08T00:10:55.160Z,15.68
2023-05-08T00:13:23.887Z,15.86
2023-05-08T00:15:52.589Z,15.74
2023-05-08T00:18:21.021Z,15.93
2023-05-08T00:20:50.281Z,15.88
2023-05-08T00:23:18.932Z,15.83
2023-05-08T00:25:47.908Z,15.87
2023-05-08T00:28:16.633Z,15.94
2023-05-08T00:30:45.122Z,16.12
2023-05-08T00:33:13.385Z,15.99
2023-05-08T00:35:44.381Z,15.62
2023-05-08T00:38:13.134Z,15.69
2023-05-08T00:40:41.878Z,15.77
2023-05-08T00:43:11.633Z,15.67
2023-05-08T00:45:42.710Z,15.72
2023-05-08T00:48:12.450Z,15.55
2023-05-08T00:50:41.174Z,15.52
2023-05-08T00:53:10.103Z,15.59
2023-05-08T00:55:39.976Z,15.32
2023-05-08T00:58:09.534Z,15.37
2023-05-08T01:00:40.654Z,15.25
2023-05-08T01:03:11.973Z,15.35
2023-05-08T01:05:41.763Z,15.35
2023-05-08T01:08:10.420Z,15.24
2023-05-08T01:10:51.201Z,15.34
2023-05-08T01:13:28.785Z,15.31
2023-05-08T01:16:18.658Z,15.35
2023-05-08T01:19:02.243Z,15.17
2023-05-08T01:21:37.808Z,15.34
2023-05-08T01:24:42.245Z,15.33
2023-05-08T01:27:23.948Z,15.32
2023-05-08T01:30:25.462Z,15.30
2023-05-08T01:33:06.713Z,15.27
2023-05-08T01:35:46.971Z,15.26
2023-05-08T01:38:34.510Z,15.16
2023-05-08T01:41:12.048Z,15.13
2023-05-08T01:43:46.451Z,15.13
2023-05-08T01:46:40.644Z,15.17
2023-05-08T01:49:17.288Z,15.12
2023-05-08T01:51:48.709Z,14.93
2023-05-08T01:54:20.332Z,14.89
2023-05-08T01:56:50.448Z,15.00
2023-05-08T01:59:23.114Z,14.99
2023-05-08T02:01:57.880Z,15.01
2023-05-08T02:04:29.302Z,14.93
2023-05-08T02:06:59.076Z,14.85
2023-05-08T02:09:28.262Z,14.88
2023-05-08T02:11:57.756Z,14.84
2023-05-08T02:14:28.028Z,14.84
2023-05-08T02:16:58.302Z,14.76
2023-05-08T02:19:28.248Z,14.57
2023-05-08T02:21:58.302Z,14.58
2023-05-08T02:24:27.295Z,14.72
2023-05-08T02:26:59.324Z,14.64
2023-05-08T02:29:28.667Z,14.69
2023-05-08T02:31:58.209Z,14.53
2023-05-08T02:34:28.469Z,14.62
2023-05-08T02:36:57.649Z,14.66
2023-05-08T02:39:30.312Z,14.71
2023-05-08T02:41:59.234Z,14.75
2023-05-08T02:44:28.039Z,14.70
2023-05-08T02:47:12.819Z,14.73
2023-05-08T02:49:47.284Z,14.66
2023-05-08T02:52:24.838Z,14.45
2023-05-08T02:55:01.696Z,14.48
2023-05-08T02:57:52.508Z,14.45
2023-05-08T03:00:25.021Z,14.40
2023-05-08T03:03:08.612Z,14.26
2023-05-08T03:05:41.957Z,14.35
2023-05-08T03:08:18.060Z,14.23
2023-05-08T03:10:52.368Z,14.23
2023-05-08T03:13:22.267Z,14.06
2023-05-08T03:16:02.433Z,14.12
2023-05-08T03:18:37.156Z,14.13
2023-05-08T03:21:09.227Z,14.10
2023-05-08T03:23:40.474Z,13.88
2023-05-08T03:26:09.799Z,13.84
2023-05-08T03:28:39.502Z,13.98
2023-05-08T03:31:08.878Z,13.87
2023-05-08T03:33:39.785Z,13.98
2023-05-08T03:36:08.606Z,13.97
2023-05-08T03:38:37.627Z,13.90
2023-05-08T03:41:06.446Z,13.82
2023-05-08T03:43:37.993Z,13.82
2023-05-08T03:46:11.564Z,13.88
2023-05-08T03:48:41.327Z,13.92
2023-05-08T03:51:10.145Z,13.85
2023-05-08T03:53:38.809Z,13.84
2023-05-08T03:56:07.580Z,13.75
2023-05-08T03:58:56.331Z,13.73
2023-05-08T04:01:28.067Z,13.09
2023-05-08T04:04:09.074Z,12.83
2023-05-08T04:06:49.841Z,12.60
2023-05-08T04:09:28.848Z,12.49
2023-05-08T04:12:17.612Z,12.51
2023-05-08T04:15:07.829Z,12.47
2023-05-08T04:17:49.636Z,12.48
2023-05-08T04:20:29.428Z,12.38
2023-05-08T04:23:00.198Z,12.29
2023-05-08T04:25:32.007Z,12.29
2023-05-08T04:28:01.062Z,12.12
2023-05-08T04:30:30.016Z,12.18
2023-05-08T04:32:59.456Z,12.04
2023-05-08T04:35:28.287Z,12.14
2023-05-08T04:37:57.485Z,11.94
2023-05-08T04:40:26.588Z,11.83
2023-05-08T04:42:55.268Z,11.71
2023-05-08T04:45:24.111Z,11.59
2023-05-08T04:47:52.768Z,11.54
2023-05-08T04:50:21.380Z,11.45
2023-05-08T04:52:50.051Z,11.31
2023-05-08T04:55:18.741Z,11.43
2023-05-08T04:57:47.823Z,11.48
2023-05-08T05:00:16.967Z,11.45
2023-05-08T05:02:46.098Z,11.49
2023-05-08T05:05:14.690Z,11.43
2023-05-08T05:07:43.566Z,11.48
2023-05-08T05:10:12.574Z,11.49
2023-05-08T05:12:41.262Z,11.45
2023-05-08T05:15:10.515Z,11.39
2023-05-08T05:17:39.211Z,11.35
2023-05-08T05:20:09.447Z,11.28
2023-05-08T05:22:38.953Z,11.14
2023-05-08T05:25:07.651Z,11.26
2023-05-08T05:27:39.105Z,11.20
2023-05-08T05:30:08.410Z,11.17
2023-05-08T05:32:36.792Z,11.14
2023-05-08T05:35:05.543Z,11.17
2023-05-08T05:37:34.113Z,11.13
2023-05-08T05:40:02.024Z,11.20
2023-05-08T05:42:30.204Z,11.29
2023-05-08T05:44:58.843Z,11.31
2023-05-08T05:47:27.440Z,11.16
2023-05-08T05:49:56.190Z,11.26
2023-05-08T05:52:24.789Z,11.09
2023-05-08T05:54:53.465Z,11.00
2023-05-08T05:57:21.414Z,10.97
2023-05-08T05:59:50.109Z,11.10
2023-05-08T06:02:20.006Z,11.09
2023-05-08T06:04:48.743Z,10.99
2023-05-08T06:07:16.787Z,11.20
2023-05-08T06:09:45.360Z,11.16
2023-05-08T06:12:14.994Z,11.03
2023-05-08T06:14:43.730Z,11.11
2023-05-08T06:17:12.322Z,11.08
2023-05-08T06:19:41.116Z,11.06
2023-05-08T06:22:09.669Z,10.81
2023-05-08T06:24:37.588Z,10.72
2023-05-08T06:27:06.173Z,10.33
2023-05-08T06:29:34.737Z,10.42
2023-05-08T06:32:03.352Z,10.31
2023-05-08T06:34:32.931Z,10.26
2023-05-08T06:37:01.625Z,10.41
2023-05-08T06:39:30.383Z,10.49
2023-05-08T06:41:58.980Z,10.55
2023-05-08T06:44:27.584Z,10.50
2023-05-08T06:46:56.676Z,10.38
2023-05-08T06:49:25.350Z,10.55
2023-05-08T06:51:55.471Z,10.62
2023-05-08T06:54:25.532Z,10.54
2023-05-08T06:56:57.272Z,10.66
2023-05-08T06:59:25.989Z,10.71
2023-05-08T07:01:54.350Z,10.78
2023-05-08T07:04:24.322Z,10.82
2023-05-08T07:06:53.304Z,10.82
2023-05-08T07:09:21.877Z,10.80
2023-05-08T07:11:51.399Z,10.84
2023-05-08T07:14:20.025Z,10.88
2023-05-08T07:16:48.829Z,10.70
2023-05-08T07:19:17.404Z,10.87
2023-05-08T07:21:47.607Z,10.79
2023-05-08T07:24:16.224Z,10.93
2023-05-08T07:26:44.887Z,10.84
2023-05-08T07:29:13.504Z,10.84
2023-05-08T07:31:43.056Z,10.91
2023-05-08T07:34:11.378Z,11.08
2023-05-08T07:36:39.828Z,11.16
2023-05-08T07:39:07.710Z,10.98
2023-05-08T07:41:37.518Z,11.17
2023-05-08T07:44:07.178Z,11.21
2023-05-08T07:46:35.641Z,11.13
2023-05-08T07:49:04.412Z,11.17
2023-05-08T07:51:33.758Z,11.01
2023-05-08T07:54:02.379Z,11.16
2023-05-08T07:56:31.048Z,11.13
2023-05-08T07:58:59.669Z,10.98
2023-05-08T08:01:28.774Z,11.15
2023-05-08T08:03:57.655Z,11.07
2023-05-08T08:06:26.301Z,10.99
2023-05-08T08:08:54.863Z,10.89
2023-05-08T08:11:24.124Z,10.89
2023-05-08T08:13:52.708Z,10.90
2023-05-08T08:16:21.262Z,10.85
2023-05-08T08:18:50.143Z,10.61
2023-05-08T08:21:18.661Z,10.66
2023-05-08T08:23:47.769Z,10.44
2023-05-08T08:26:16.381Z,10.45
2023-05-08T08:28:44.771Z,10.46
2023-05-08T08:31:13.414Z,10.48
2023-05-08T08:33:41.644Z,10.38
2023-05-08T08:36:19.121Z,10.53
2023-05-08T08:38:47.747Z,10.60
2023-05-08T08:41:16.581Z,10.71
2023-05-08T08:43:44.903Z,10.58
2023-05-08T08:46:18.450Z,10.53
2023-05-08T08:48:48.299Z,10.64
2023-05-08T08:51:30.185Z,10.63
2023-05-08T08:54:13.701Z,10.60
2023-05-08T08:56:46.160Z,10.42
2023-05-08T08:59:15.114Z,10.65
2023-05-08T09:01:47.069Z,10.70
2023-05-08T09:04:15.799Z,10.71
2023-05-08T09:06:44.681Z,10.67
2023-05-08T09:09:14.812Z,10.75
2023-05-08T09:11:46.283Z,10.62
2023-05-08T09:14:15.058Z,10.65
2023-05-08T09:16:43.874Z,10.43
2023-05-08T09:19:17.433Z,10.55
2023-05-08T09:21:47.092Z,10.40
2023-05-08T09:24:15.747Z,10.27
2023-05-08T09:26:44.637Z,10.30
2023-05-08T09:29:21.345Z,9.97
2023-05-08T09:31:52.436Z,10.14
2023-05-08T09:34:32.038Z,10.06
2023-05-08T09:37:03.599Z,10.02
2023-05-08T09:39:32.579Z,10.00
2023-05-08T09:42:05.594Z,10.00
2023-05-08T09:44:51.026Z,10.06
2023-05-08T09:47:22.117Z,10.13
2023-05-08T09:50:00.018Z,10.16
2023-05-08T09:52:29.785Z,9.95
2023-05-08T09:55:09.946Z,10.04
2023-05-08T09:57:41.334Z,10.02
2023-05-08T10:00:15.723Z,9.98
2023-05-08T10:02:58.161Z,9.94
2023-05-08T10:05:33.046Z,9.76
2023-05-08T10:08:20.116Z,9.91
2023-05-08T10:10:49.010Z,9.70
2023-05-08T10:13:17.774Z,9.68
2023-05-08T10:15:47.102Z,9.39
2023-05-08T10:18:19.297Z,9.29
2023-05-08T10:20:50.572Z,9.32
2023-05-08T10:23:20.172Z,9.19
2023-05-08T10:25:52.082Z,8.97
2023-05-08T10:28:35.782Z,8.85
2023-05-08T10:31:06.878Z,8.76
2023-05-08T10:33:36.984Z,8.66
2023-05-08T10:36:06.777Z,8.47
2023-05-08T10:38:36.405Z,8.38
2023-05-08T10:41:05.283Z,8.12
2023-05-08T10:43:35.213Z,8.18
2023-05-08T10:46:12.951Z,7.81
2023-05-08T10:49:02.071Z,7.74
2023-05-08T10:51:55.851Z,7.85
2023-05-08T10:54:47.362Z,7.73
2023-05-08T10:57:17.011Z,7.55
2023-05-08T10:59:49.089Z,7.60
2023-05-08T11:02:18.224Z,7.56
2023-05-08T11:04:47.327Z,7.50
2023-05-08T11:07:16.554Z,7.52
2023-05-08T11:09:45.068Z,7.44
2023-05-08T11:12:31.987Z,7.39
2023-05-08T11:15:08.407Z,7.40
2023-05-08T11:17:38.427Z,7.41
2023-05-08T11:20:08.150Z,7.38
2023-05-08T11:22:38.630Z,7.58
2023-05-08T11:25:10.385Z,7.53
2023-05-08T11:27:41.723Z,7.22
2023-05-08T11:30:29.921Z,7.36
2023-05-08T11:33:15.788Z,7.27
2023-05-08T11:36:17.138Z,7.31
2023-05-08T11:39:06.039Z,7.28
2023-05-08T11:41:34.625Z,7.23
2023-05-08T11:44:22.105Z,7.32
2023-05-08T11:46:56.047Z,7.42
2023-05-08T11:49:29.804Z,7.56
2023-05-08T11:52:00.393Z,7.60
2023-05-08T11:54:32.790Z,7.58
2023-05-08T11:57:01.412Z,7.43
2023-05-08T11:59:30.535Z,7.69
2023-05-08T12:02:07.813Z,7.82
2023-05-08T12:04:48.472Z,7.80
2023-05-08T12:07:17.868Z,7.69
2023-05-08T12:09:48.150Z,7.51
2023-05-08T12:12:16.937Z,7.50
2023-05-08T12:14:45.497Z,7.65
2023-05-08T12:17:21.344Z,7.88
2023-05-08T12:19:50.014Z,7.83
2023-05-08T12:22:18.768Z,8.17
2023-05-08T12:24:47.393Z,8.11
2023-05-08T12:27:16.056Z,8.35
2023-05-08T12:29:47.983Z,8.45
2023-05-08T12:32:16.627Z,8.36
2023-05-08T12:34:44.985Z,8.41
2023-05-08T12:37:13.860Z,8.51
2023-05-08T12:39:46.320Z,8.77
2023-05-08T12:42:14.654Z,8.92
2023-05-08T12:44:51.511Z,8.96
2023-05-08T12:47:23.071Z,8.90
2023-05-08T12:49:52.118Z,9.13
2023-05-08T12:52:21.599Z,9.13
2023-05-08T12:54:50.830Z,9.28
2023-05-08T12:57:22.773Z,9.33
2023-05-08T12:59:51.365Z,9.36
2023-05-08T13:02:25.239Z,9.46
2023-05-08T13:04:57.559Z,9.54
2023-05-08T13:07:26.428Z,9.56
2023-05-08T13:10:05.167Z,9.62
2023-05-08T13:12:34.310Z,9.78
2023-05-08T13:15:04.319Z,9.88
2023-05-08T13:17:32.617Z,9.95
2023-05-08T13:20:02.021Z,9.99
2023-05-08T13:22:32.259Z,10.13
2023-05-08T13:25:00.907Z,10.10
2023-05-08T13:27:29.301Z,10.19
2023-05-08T13:29:57.908Z,10.25
2023-05-08T13:32:26.059Z,10.22
2023-05-08T13:34:57.670Z,10.38
2023-05-08T13:37:28.242Z,10.44
2023-05-08T13:39:56.543Z,10.51
2023-05-08T13:42:25.049Z,10.53
2023-05-08T13:44:54.600Z,10.56
2023-05-08T13:47:23.311Z,10.58
2023-05-08T13:49:51.907Z,10.60
2023-05-08T13:52:20.504Z,10.73
2023-05-08T13:54:48.640Z,10.91
2023-05-08T13:57:17.243Z,11.16
2023-05-08T13:59:46.637Z,11.18
2023-05-08T14:02:16.561Z,11.35
2023-05-08T14:04:48.761Z,11.60
2023-05-08T14:07:17.684Z,11.48
2023-05-08T14:09:47.923Z,11.54
2023-05-08T14:12:17.025Z,11.56
2023-05-08T14:14:45.736Z,11.52
2023-05-08T14:17:14.480Z,11.56
2023-05-08T14:19:43.061Z,11.37
2023-05-08T14:22:11.351Z,11.49
2023-05-08T14:24:41.013Z,11.53
2023-05-08T14:27:09.162Z,11.45
2023-05-08T14:29:37.944Z,11.29
2023-05-08T14:32:07.118Z,11.35
2023-05-08T14:34:35.972Z,11.58
2023-05-08T14:37:04.368Z,11.60
2023-05-08T14:39:32.981Z,11.48
2023-05-08T14:44:35.753Z,11.92
2023-05-08T14:47:04.557Z,12.03
2023-05-08T14:49:38.015Z,11.87
2023-05-08T14:52:07.997Z,11.95
2023-05-08T14:54:37.001Z,11.79
2023-05-08T14:57:05.476Z,11.89
2023-05-08T14:59:34.189Z,12.04
2023-05-08T15:02:02.848Z,12.18
2023-05-08T15:04:31.562Z,12.19
2023-05-08T15:06:59.689Z,12.42
2023-05-08T15:09:28.096Z,12.65
2023-05-08T15:11:56.907Z,12.65
2023-05-08T15:14:25.504Z,12.88
2023-05-08T15:16:54.136Z,12.99
2023-05-08T15:19:22.702Z,13.18
2023-05-08T15:21:51.460Z,13.18
2023-05-08T15:24:20.064Z,13.30
2023-05-08T15:26:48.640Z,13.40
2023-05-08T15:29:16.844Z,13.46
2023-05-08T15:31:45.579Z,13.74
2023-05-08T15:34:13.796Z,14.03
2023-05-08T15:36:42.411Z,14.05
2023-05-08T15:39:11.073Z,14.19
2023-05-08T15:41:41.199Z,14.45
2023-05-08T15:44:10.794Z,14.41
2023-05-08T15:46:38.962Z,14.70
2023-05-08T15:49:07.362Z,14.82
2023-05-08T15:51:36.196Z,14.71
2023-05-08T15:54:04.868Z,14.93
2023-05-08T15:56:34.072Z,15.31
2023-05-08T15:59:03.396Z,15.02
2023-05-08T16:01:32.005Z,15.22
2023-05-08T16:04:00.150Z,15.35
2023-05-08T16:06:28.835Z,14.95
2023-05-08T16:08:57.415Z,15.28
2023-05-08T16:11:25.562Z,15.28
2023-05-08T16:13:54.334Z,15.12
2023-05-08T16:16:22.927Z,15.36
2023-05-08T16:18:51.407Z,15.24
2023-05-08T16:21:19.523Z,15.26
2023-05-08T16:23:48.171Z,15.76
2023-05-08T16:26:17.976Z,16.21
2023-05-08T16:28:46.536Z,15.94
2023-05-08T16:31:15.311Z,15.17
2023-05-08T16:33:43.541Z,15.25
2023-05-08T16:36:12.158Z,15.35
2023-05-08T16:38:40.768Z,15.17
2023-05-08T16:41:11.462Z,15.42
2023-05-08T16:43:39.642Z,15.13
2023-05-08T16:46:08.141Z,15.14
2023-05-08T16:48:37.055Z,14.99
2023-05-08T16:51:05.700Z,14.72
2023-05-08T16:53:34.486Z,14.60
2023-05-08T16:56:02.664Z,15.09
2023-05-08T16:58:31.317Z,15.07
2023-05-08T17:01:00.137Z,15.46
2023-05-08T17:03:28.925Z,15.11
2023-05-08T17:05:57.158Z,15.03
2023-05-08T17:08:26.662Z,15.32
2023-05-08T17:10:55.330Z,15.52
2023-05-08T17:13:24.053Z,15.56
2023-05-08T17:15:53.027Z,15.46
2023-05-08T17:18:21.812Z,16.00
2023-05-08T17:20:49.906Z,16.49
2023-05-08T17:23:18.471Z,16.44
2023-05-08T17:25:48.243Z,16.47
2023-05-08T17:28:16.831Z,17.01
2023-05-08T17:30:46.447Z,17.11
2023-05-08T17:33:15.654Z,16.81
2023-05-08T17:35:44.257Z,16.48
2023-05-08T17:38:12.927Z,16.66
2023-05-08T17:40:41.898Z,17.08
2023-05-08T17:43:10.604Z,16.52
2023-05-08T17:45:39.010Z,16.47
2023-05-08T17:48:07.726Z,17.46
2023-05-08T17:50:36.640Z,18.08
2023-05-08T17:53:05.011Z,17.51
2023-05-08T17:55:33.987Z,17.84
2023-05-08T17:58:02.618Z,17.28
2023-05-08T18:00:31.383Z,17.77
2023-05-08T18:03:00.358Z,18.14
2023-05-08T18:05:28.377Z,18.36
2023-05-08T18:07:56.775Z,17.26
2023-05-08T18:10:25.612Z,17.23
2023-05-08T18:12:54.241Z,17.34
2023-05-08T18:15:22.452Z,17.32
2023-05-08T18:17:51.154Z,17.51
2023-05-08T18:20:21.684Z,17.67
2023-05-08T18:22:50.306Z,17.54
2023-05-08T18:25:18.928Z,17.52
2023-05-08T18:27:49.939Z,17.32
2023-05-08T18:30:18.551Z,17.06
2023-05-08T18:32:47.320Z,17.14
2023-05-08T18:35:15.999Z,17.24
2023-05-08T18:37:44.624Z,17.51
2023-05-08T18:40:14.055Z,18.08
2023-05-08T18:42:42.826Z,18.00
2023-05-08T18:45:12.093Z,17.69
2023-05-08T18:47:40.816Z,17.64
2023-05-08T18:50:10.352Z,18.11
2023-05-08T18:52:39.058Z,18.18
2023-05-08T18:55:08.191Z,18.04
2023-05-08T18:57:36.874Z,17.42
2023-05-08T19:00:06.732Z,17.81
2023-05-08T19:02:35.108Z,17.78
2023-05-08T19:05:03.804Z,18.12
2023-05-08T19:07:32.384Z,18.11
2023-05-08T19:10:01.121Z,19.10
2023-05-08T19:12:29.723Z,18.83
2023-05-08T19:14:58.028Z,19.06
2023-05-08T19:17:26.752Z,18.89
2023-05-08T19:19:55.509Z,19.79
2023-05-08T19:22:24.322Z,19.89
2023-05-08T19:24:52.682Z,18.62
2023-05-08T19:27:21.216Z,18.55
2023-05-08T19:29:49.737Z,18.34
2023-05-08T19:32:18.423Z,18.07
2023-05-08T19:34:46.554Z,18.40
2023-05-08T19:37:15.184Z,18.21
2023-05-08T19:39:43.913Z,18.49
2023-05-08T19:42:15.045Z,17.87
2023-05-08T19:44:43.632Z,18.10
2023-05-08T19:47:11.836Z,18.55
2023-05-08T19:49:40.711Z,18.50
2023-05-08T19:52:09.376Z,18.98
2023-05-08T19:54:37.503Z,19.02
2023-05-08T19:57:06.083Z,19.28
2023-05-08T19:59:35.447Z,19.09
2023-05-08T20:02:04.036Z,18.28
2023-05-08T20:04:33.914Z,17.74
2023-05-08T20:07:12.005Z,17.47
2023-05-08T20:09:40.585Z,17.38
2023-05-08T20:12:09.194Z,17.34
2023-05-08T20:14:37.776Z,17.47
2023-05-08T20:17:06.468Z,17.30
2023-05-08T20:19:35.266Z,17.22
2023-05-08T20:22:03.577Z,17.05
2023-05-08T20:24:32.197Z,16.96
2023-05-08T20:27:00.511Z,16.86
2023-05-08T20:29:29.173Z,16.83
2023-05-08T20:31:57.802Z,16.67
2023-05-08T20:34:26.159Z,16.35
2023-05-08T20:36:54.818Z,15.37
2023-05-08T20:39:23.366Z,14.77
2023-05-08T20:41:51.712Z,13.77
2023-05-08T20:44:20.815Z,13.33
2023-05-08T20:46:48.748Z,13.08
2023-05-08T20:49:18.508Z,12.67
2023-05-08T20:51:46.795Z,12.79
2023-05-08T20:54:15.427Z,12.96
2023-05-08T20:56:44.037Z,12.84
2023-05-08T20:59:12.958Z,12.59
2023-05-08T21:01:41.817Z,12.63
2023-05-08T21:04:10.423Z,12.35
2023-05-08T21:06:42.119Z,12.10
2023-05-08T21:09:10.275Z,11.90
2023-05-08T21:11:38.680Z,11.55
2023-05-08T21:14:07.464Z,11.63
2023-05-08T21:16:35.700Z,11.60
2023-05-08T21:19:04.384Z,11.38
2023-05-08T21:21:32.770Z,11.67
2023-05-08T21:24:01.387Z,11.52
2023-05-08T21:26:29.976Z,11.38
2023-05-08T21:29:00.133Z,11.17
2023-05-08T21:31:30.029Z,11.36
2023-05-08T21:33:58.355Z,11.39
2023-05-08T21:36:26.938Z,11.58
2023-05-08T21:38:55.515Z,11.70
2023-05-08T21:41:24.312Z,11.68
2023-05-08T21:43:52.916Z,11.96
2023-05-08T21:46:21.518Z,12.01
2023-05-08T21:48:50.204Z,12.26
2023-05-08T21:51:18.335Z,12.34
2023-05-08T21:53:46.948Z,12.27
2023-05-08T21:56:16.415Z,12.16
2023-05-08T21:58:45.162Z,12.05
2023-05-08T22:01:13.749Z,11.80
2023-05-08T22:03:42.450Z,11.77
2023-05-08T22:06:11.230Z,11.65
2023-05-08T22:08:39.473Z,11.62
2023-05-08T22:11:08.067Z,11.64
2023-05-08T22:13:36.395Z,11.86
2023-05-08T22:16:05.016Z,11.84
2023-05-08T22:18:33.619Z,11.74
2023-05-08T22:21:02.277Z,11.89
2023-05-08T22:23:30.897Z,11.84
2023-05-08T22:25:59.091Z,11.84
2023-05-08T22:28:27.565Z,11.64
2023-05-08T22:30:56.160Z,11.63
2023-05-08T22:33:24.288Z,11.57
2023-05-08T22:35:52.911Z,11.32
2023-05-08T22:38:22.554Z,11.14
2023-05-08T22:40:51.242Z,10.92
2023-05-08T22:43:20.490Z,10.76
2023-05-08T22:45:49.596Z,10.59
2023-05-08T22:48:18.218Z,10.77
2023-05-08T22:50:47.076Z,10.79
2023-05-08T22:53:15.206Z,10.59
2023-05-08T22:55:43.974Z,10.61
2023-05-08T22:58:12.749Z,10.82
2023-05-08T23:00:41.480Z,10.82
2023-05-08T23:03:10.977Z,10.93
2023-05-08T23:05:39.338Z,11.00
2023-05-08T23:08:08.253Z,11.10
2023-05-08T23:10:36.888Z,11.25
2023-05-08T23:13:05.565Z,11.27
2023-05-08T23:15:34.373Z,11.23
2023-05-08T23:18:03.024Z,11.50
2023-05-08T23:20:31.734Z,11.43
2023-05-08T23:23:00.129Z,11.21
2023-05-08T23:25:28.780Z,11.45
2023-05-08T23:27:56.989Z,11.44
2023-05-08T23:30:25.706Z,11.44
2023-05-08T23:32:54.335Z,11.35
2023-05-08T23:35:22.590Z,11.44
2023-05-08T23:37:51.342Z,11.30
2023-05-08T23:40:20.184Z,11.50
2023-05-08T23:42:48.761Z,11.40
2023-05-08T23:45:17.330Z,11.58
2023-05-08T23:47:46.083Z,11.56
2023-05-08T23:50:14.409Z,11.53
2023-05-08T23:52:43.529Z,11.48
2023-05-08T23:55:12.719Z,11.41
2023-05-08T23:57:42.466Z,11.30
